sensor_id;sensor_type;location;lat;lon;timestamp;pressure;altitude;pressure_sealevel;temperature;humidity
46347;BME280;32057;47.830;19.046;2023-04-06T00:00:51;100477.94;;;-1.97;82.38
46347;BME280;32057;47.830;19.046;2023-04-06T00:03:16;100475.16;;;-2.00;82.46
46347;BME280;32057;47.830;19.046;2023-04-06T00:05:42;100474.38;;;-2.34;81.24
46347;BME280;32057;47.830;19.046;2023-04-06T00:08:07;100468.50;;;-2.45;82.58
46347;BME280;32057;47.830;19.046;2023-04-06T00:10:33;100470.25;;;-2.44;84.09
46347;BME280;32057;47.830;19.046;2023-04-06T00:12:59;100467.28;;;-2.27;87.40
46347;BME280;32057;47.830;19.046;2023-04-06T00:15:25;100462.31;;;-2.13;86.60
46347;BME280;32057;47.830;19.046;2023-04-06T00:17:51;100462.78;;;-2.07;86.00
46347;BME280;32057;47.830;19.046;2023-04-06T00:20:17;100462.41;;;-2.00;85.87
46347;BME280;32057;47.830;19.046;2023-04-06T00:22:43;100456.19;;;-1.92;84.77
46347;BME280;32057;47.830;19.046;2023-04-06T00:25:09;100452.09;;;-1.90;83.07
46347;BME280;32057;47.830;19.046;2023-04-06T00:27:38;100448.78;;;-1.89;84.17
46347;BME280;32057;47.830;19.046;2023-04-06T00:30:04;100447.34;;;-1.85;83.81
46347;BME280;32057;47.830;19.046;2023-04-06T00:32:31;100451.78;;;-1.83;83.97
46347;BME280;32057;47.830;19.046;2023-04-06T00:34:56;100451.00;;;-1.82;86.24
46347;BME280;32057;47.830;19.046;2023-04-06T00:37:22;100451.47;;;-1.87;84.21
46347;BME280;32057;47.830;19.046;2023-04-06T00:39:47;100449.34;;;-1.93;85.13
46347;BME280;32057;47.830;19.046;2023-04-06T00:42:13;100455.75;;;-1.98;84.04
46347;BME280;32057;47.830;19.046;2023-04-06T00:44:42;100450.22;;;-2.04;84.01
46347;BME280;32057;47.830;19.046;2023-04-06T00:47:07;100458.88;;;-2.02;85.44
46347;BME280;32057;47.830;19.046;2023-04-06T00:49:33;100450.22;;;-2.04;84.12
46347;BME280;32057;47.830;19.046;2023-04-06T00:51:59;100451.22;;;-2.02;84.36
46347;BME280;32057;47.830;19.046;2023-04-06T00:54:26;100448.59;;;-2.15;83.96
46347;BME280;32057;47.830;19.046;2023-04-06T00:56:51;100450.00;;;-2.31;81.89
46347;BME280;32057;47.830;19.046;2023-04-06T00:59:17;100455.09;;;-2.43;82.29
46347;BME280;32057;47.830;19.046;2023-04-06T01:01:42;100450.66;;;-2.45;83.04
46347;BME280;32057;47.830;19.046;2023-04-06T01:04:08;100454.59;;;-2.61;83.43
46347;BME280;32057;47.830;19.046;2023-04-06T01:06:33;100449.50;;;-2.61;85.37
46347;BME280;32057;47.830;19.046;2023-04-06T01:08:59;100449.75;;;-2.57;86.01
46347;BME280;32057;47.830;19.046;2023-04-06T01:11:24;100449.88;;;-2.44;86.22
46347;BME280;32057;47.830;19.046;2023-04-06T01:13:51;100447.34;;;-2.32;86.87
46347;BME280;32057;47.830;19.046;2023-04-06T01:16:16;100445.34;;;-2.25;86.05
46347;BME280;32057;47.830;19.046;2023-04-06T01:18:42;100446.47;;;-2.21;85.62
46347;BME280;32057;47.830;19.046;2023-04-06T01:21:08;100446.34;;;-2.23;84.77
46347;BME280;32057;47.830;19.046;2023-04-06T01:23:34;100447.13;;;-2.24;84.66
46347;BME280;32057;47.830;19.046;2023-04-06T01:26:00;100448.22;;;-2.32;83.63
46347;BME280;32057;47.830;19.046;2023-04-06T01:28:25;100448.97;;;-2.45;82.42
46347;BME280;32057;47.830;19.046;2023-04-06T01:30:51;100450.38;;;-2.60;82.95
46347;BME280;32057;47.830;19.046;2023-04-06T01:33:16;100447.25;;;-2.68;83.84
46347;BME280;32057;47.830;19.046;2023-04-06T01:35:42;100449.31;;;-2.86;84.05
46347;BME280;32057;47.830;19.046;2023-04-06T01:38:07;100447.09;;;-2.93;87.37
46347;BME280;32057;47.830;19.046;2023-04-06T01:40:32;100446.44;;;-2.90;88.07
46347;BME280;32057;47.830;19.046;2023-04-06T01:42:58;100449.09;;;-2.89;88.66
46347;BME280;32057;47.830;19.046;2023-04-06T01:45:23;100448.13;;;-2.79;88.21
46347;BME280;32057;47.830;19.046;2023-04-06T01:47:49;100442.16;;;-2.68;88.84
46347;BME280;32057;47.830;19.046;2023-04-06T01:50:14;100441.44;;;-2.55;88.34
46347;BME280;32057;47.830;19.046;2023-04-06T01:52:40;100440.66;;;-2.54;86.83
46347;BME280;32057;47.830;19.046;2023-04-06T01:55:06;100432.97;;;-2.66;85.62
46347;BME280;32057;47.830;19.046;2023-04-06T01:57:32;100430.84;;;-2.83;85.78
46347;BME280;32057;47.830;19.046;2023-04-06T01:59:57;100436.16;;;-2.80;85.96
46347;BME280;32057;47.830;19.046;2023-04-06T02:02:23;100428.19;;;-2.85;86.74
46347;BME280;32057;47.830;19.046;2023-04-06T02:04:48;100423.06;;;-2.96;85.26
46347;BME280;32057;47.830;19.046;2023-04-06T02:07:13;100419.50;;;-2.98;85.61
46347;BME280;32057;47.830;19.046;2023-04-06T02:09:39;100423.13;;;-3.07;85.39
46347;BME280;32057;47.830;19.046;2023-04-06T02:12:05;100421.06;;;-3.01;86.03
46347;BME280;32057;47.830;19.046;2023-04-06T02:14:30;100417.97;;;-2.96;87.41
46347;BME280;32057;47.830;19.046;2023-04-06T02:16:56;100417.44;;;-2.92;87.37
46347;BME280;32057;47.830;19.046;2023-04-06T02:19:21;100423.31;;;-2.93;87.07
46347;BME280;32057;47.830;19.046;2023-04-06T02:21:47;100410.66;;;-2.92;87.52
46347;BME280;32057;47.830;19.046;2023-04-06T02:24:13;100414.78;;;-2.82;88.06
46347;BME280;32057;47.830;19.046;2023-04-06T02:26:38;100409.16;;;-2.78;89.29
46347;BME280;32057;47.830;19.046;2023-04-06T02:29:04;100409.81;;;-2.81;86.48
46347;BME280;32057;47.830;19.046;2023-04-06T02:31:29;100411.25;;;-2.84;86.25
46347;BME280;32057;47.830;19.046;2023-04-06T02:33:55;100408.25;;;-2.90;86.74
46347;BME280;32057;47.830;19.046;2023-04-06T02:36:20;100398.91;;;-3.02;85.75
46347;BME280;32057;47.830;19.046;2023-04-06T02:38:45;100407.47;;;-3.23;84.88
46347;BME280;32057;47.830;19.046;2023-04-06T02:41:11;100416.22;;;-3.42;84.96
46347;BME280;32057;47.830;19.046;2023-04-06T02:43:36;100414.53;;;-3.53;87.08
46347;BME280;32057;47.830;19.046;2023-04-06T02:46:02;100407.31;;;-3.58;87.26
46347;BME280;32057;47.830;19.046;2023-04-06T02:48:27;100406.84;;;-3.65;86.04
46347;BME280;32057;47.830;19.046;2023-04-06T02:50:53;100403.41;;;-3.65;87.46
46347;BME280;32057;47.830;19.046;2023-04-06T02:53:18;100405.97;;;-3.75;87.61
46347;BME280;32057;47.830;19.046;2023-04-06T02:55:43;100405.16;;;-3.86;87.01
46347;BME280;32057;47.830;19.046;2023-04-06T02:58:09;100405.16;;;-3.86;89.15
46347;BME280;32057;47.830;19.046;2023-04-06T03:00:35;100393.38;;;-3.96;89.48
46347;BME280;32057;47.830;19.046;2023-04-06T03:03:01;100397.03;;;-3.92;89.01
46347;BME280;32057;47.830;19.046;2023-04-06T03:05:26;100394.31;;;-3.84;88.41
46347;BME280;32057;47.830;19.046;2023-04-06T03:07:52;100397.41;;;-3.88;87.43
46347;BME280;32057;47.830;19.046;2023-04-06T03:10:17;100395.78;;;-3.97;87.77
46347;BME280;32057;47.830;19.046;2023-04-06T03:12:42;100392.19;;;-4.11;89.41
46347;BME280;32057;47.830;19.046;2023-04-06T03:15:08;100398.53;;;-4.16;89.83
46347;BME280;32057;47.830;19.046;2023-04-06T03:17:34;100403.22;;;-4.11;91.39
46347;BME280;32057;47.830;19.046;2023-04-06T03:20:00;100401.03;;;-4.06;90.67
46347;BME280;32057;47.830;19.046;2023-04-06T03:22:25;100409.09;;;-4.22;91.46
46347;BME280;32057;47.830;19.046;2023-04-06T03:24:51;100407.06;;;-4.26;91.92
46347;BME280;32057;47.830;19.046;2023-04-06T03:27:16;100406.78;;;-4.09;92.87
46347;BME280;32057;47.830;19.046;2023-04-06T03:29:42;100405.13;;;-4.08;88.89
46347;BME280;32057;47.830;19.046;2023-04-06T03:32:08;100407.81;;;-4.17;89.76
46347;BME280;32057;47.830;19.046;2023-04-06T03:34:35;100403.97;;;-4.12;90.64
46347;BME280;32057;47.830;19.046;2023-04-06T03:37:00;100407.66;;;-4.08;92.42
46347;BME280;32057;47.830;19.046;2023-04-06T03:39:26;100402.53;;;-3.98;92.12
46347;BME280;32057;47.830;19.046;2023-04-06T03:41:51;100406.47;;;-4.02;93.01
46347;BME280;32057;47.830;19.046;2023-04-06T03:44:17;100410.00;;;-3.89;92.72
46347;BME280;32057;47.830;19.046;2023-04-06T03:46:42;100408.03;;;-3.71;93.50
46347;BME280;32057;47.830;19.046;2023-04-06T03:49:07;100408.50;;;-3.65;92.24
46347;BME280;32057;47.830;19.046;2023-04-06T03:51:33;100415.06;;;-3.57;92.80
46347;BME280;32057;47.830;19.046;2023-04-06T03:53:58;100403.09;;;-3.58;91.25
46347;BME280;32057;47.830;19.046;2023-04-06T03:56:24;100397.41;;;-3.66;89.56
46347;BME280;32057;47.830;19.046;2023-04-06T03:58:49;100400.47;;;-3.92;87.06
46347;BME280;32057;47.830;19.046;2023-04-06T04:01:19;100404.19;;;-3.98;89.17
46347;BME280;32057;47.830;19.046;2023-04-06T04:03:44;100399.50;;;-4.04;88.65
46347;BME280;32057;47.830;19.046;2023-04-06T04:06:10;100396.53;;;-4.21;91.38
46347;BME280;32057;47.830;19.046;2023-04-06T04:08:35;100398.53;;;-4.16;93.45
46347;BME280;32057;47.830;19.046;2023-04-06T04:11:01;100398.28;;;-4.09;92.82
46347;BME280;32057;47.830;19.046;2023-04-06T04:13:26;100396.22;;;-4.03;91.64
46347;BME280;32057;47.830;19.046;2023-04-06T04:15:52;100392.88;;;-4.02;91.63
46347;BME280;32057;47.830;19.046;2023-04-06T04:18:18;100382.16;;;-3.88;92.49
46347;BME280;32057;47.830;19.046;2023-04-06T04:20:43;100386.06;;;-3.81;91.42
46347;BME280;32057;47.830;19.046;2023-04-06T04:23:09;100386.41;;;-3.76;91.73
46347;BME280;32057;47.830;19.046;2023-04-06T04:25:35;100380.94;;;-3.71;92.21
46347;BME280;32057;47.830;19.046;2023-04-06T04:28:00;100381.53;;;-3.63;92.11
46347;BME280;32057;47.830;19.046;2023-04-06T04:30:26;100381.47;;;-3.53;92.81
46347;BME280;32057;47.830;19.046;2023-04-06T04:32:51;100361.38;;;-3.38;92.60
46347;BME280;32057;47.830;19.046;2023-04-06T04:35:17;100367.19;;;-3.29;91.14
46347;BME280;32057;47.830;19.046;2023-04-06T04:37:42;100375.88;;;-3.15;92.30
46347;BME280;32057;47.830;19.046;2023-04-06T04:40:08;100378.91;;;-2.97;91.75
46347;BME280;32057;47.830;19.046;2023-04-06T04:42:34;100376.59;;;-2.82;90.48
46347;BME280;32057;47.830;19.046;2023-04-06T04:44:59;100372.66;;;-2.67;90.27
46347;BME280;32057;47.830;19.046;2023-04-06T04:47:25;100378.63;;;-2.54;89.94
46347;BME280;32057;47.830;19.046;2023-04-06T04:49:50;100372.22;;;-2.49;89.23
46347;BME280;32057;47.830;19.046;2023-04-06T04:52:16;100365.47;;;-2.49;85.96
46347;BME280;32057;47.830;19.046;2023-04-06T04:54:41;100362.34;;;-2.33;85.63
46347;BME280;32057;47.830;19.046;2023-04-06T04:57:07;100359.81;;;-2.33;85.79
46347;BME280;32057;47.830;19.046;2023-04-06T04:59:34;100353.34;;;-2.28;86.29
46347;BME280;32057;47.830;19.046;2023-04-06T05:02:00;100354.59;;;-2.23;85.49
46347;BME280;32057;47.830;19.046;2023-04-06T05:04:25;100352.16;;;-2.21;85.24
46347;BME280;32057;47.830;19.046;2023-04-06T05:07:02;100348.50;;;-2.13;85.55
46347;BME280;32057;47.830;19.046;2023-04-06T05:09:29;100353.34;;;-2.04;84.61
46347;BME280;32057;47.830;19.046;2023-04-06T05:11:55;100343.56;;;-1.98;86.06
46347;BME280;32057;47.830;19.046;2023-04-06T05:14:21;100346.34;;;-1.95;85.62
46347;BME280;32057;47.830;19.046;2023-04-06T05:16:46;100340.34;;;-1.84;85.72
46347;BME280;32057;47.830;19.046;2023-04-06T05:19:12;100333.97;;;-1.65;86.24
46347;BME280;32057;47.830;19.046;2023-04-06T05:21:37;100333.00;;;-1.54;83.85
46347;BME280;32057;47.830;19.046;2023-04-06T05:24:03;100334.09;;;-1.50;83.73
46347;BME280;32057;47.830;19.046;2023-04-06T05:26:28;100335.06;;;-1.36;84.03
46347;BME280;32057;47.830;19.046;2023-04-06T05:28:54;100333.31;;;-1.24;84.42
46347;BME280;32057;47.830;19.046;2023-04-06T05:31:20;100326.88;;;-1.19;83.42
46347;BME280;32057;47.830;19.046;2023-04-06T05:33:45;100322.56;;;-1.07;84.92
46347;BME280;32057;47.830;19.046;2023-04-06T05:36:11;100323.09;;;-0.99;85.78
46347;BME280;32057;47.830;19.046;2023-04-06T05:38:37;100321.03;;;-0.91;85.80
46347;BME280;32057;47.830;19.046;2023-04-06T05:41:02;100322.22;;;-0.86;85.55
46347;BME280;32057;47.830;19.046;2023-04-06T05:43:28;100317.63;;;-0.92;85.41
46347;BME280;32057;47.830;19.046;2023-04-06T05:45:53;100323.78;;;-0.88;86.17
46347;BME280;32057;47.830;19.046;2023-04-06T05:48:19;100316.34;;;-0.85;87.24
46347;BME280;32057;47.830;19.046;2023-04-06T05:50:48;100309.94;;;-0.78;87.36
46347;BME280;32057;47.830;19.046;2023-04-06T05:53:14;100315.56;;;-0.71;87.76
46347;BME280;32057;47.830;19.046;2023-04-06T05:55:40;100311.81;;;-0.63;87.92
46347;BME280;32057;47.830;19.046;2023-04-06T05:58:05;100297.97;;;-0.53;88.32
46347;BME280;32057;47.830;19.046;2023-04-06T06:00:31;100298.75;;;-0.41;89.08
46347;BME280;32057;47.830;19.046;2023-04-06T06:02:56;100305.53;;;-0.28;88.59
46347;BME280;32057;47.830;19.046;2023-04-06T06:05:22;100293.78;;;-0.11;88.89
46347;BME280;32057;47.830;19.046;2023-04-06T06:07:47;100282.66;;;0.02;84.10
46347;BME280;32057;47.830;19.046;2023-04-06T06:10:13;100287.91;;;0.18;83.79
46347;BME280;32057;47.830;19.046;2023-04-06T06:12:38;100281.75;;;0.30;81.31
46347;BME280;32057;47.830;19.046;2023-04-06T06:15:04;100269.78;;;0.44;81.25
46347;BME280;32057;47.830;19.046;2023-04-06T06:17:30;100269.84;;;0.58;80.12
46347;BME280;32057;47.830;19.046;2023-04-06T06:19:55;100273.09;;;0.71;78.52
46347;BME280;32057;47.830;19.046;2023-04-06T06:22:21;100274.78;;;0.85;78.37
46347;BME280;32057;47.830;19.046;2023-04-06T06:24:46;100269.50;;;0.97;76.90
46347;BME280;32057;47.830;19.046;2023-04-06T06:27:12;100266.03;;;1.11;77.52
46347;BME280;32057;47.830;19.046;2023-04-06T06:29:37;100259.13;;;1.25;76.35
46347;BME280;32057;47.830;19.046;2023-04-06T06:32:03;100257.44;;;1.41;76.77
46347;BME280;32057;47.830;19.046;2023-04-06T06:34:28;100258.97;;;1.53;74.91
46347;BME280;32057;47.830;19.046;2023-04-06T06:36:53;100252.53;;;1.60;70.72
46347;BME280;32057;47.830;19.046;2023-04-06T06:39:20;100245.63;;;1.59;70.30
46347;BME280;32057;47.830;19.046;2023-04-06T06:41:46;100247.56;;;1.63;70.14
46347;BME280;32057;47.830;19.046;2023-04-06T06:44:11;100244.44;;;1.69;69.49
46347;BME280;32057;47.830;19.046;2023-04-06T06:46:37;100247.56;;;1.79;73.18
46347;BME280;32057;47.830;19.046;2023-04-06T06:49:02;100246.66;;;1.94;73.39
46347;BME280;32057;47.830;19.046;2023-04-06T06:51:28;100239.34;;;2.02;71.31
46347;BME280;32057;47.830;19.046;2023-04-06T06:53:53;100231.00;;;2.06;68.09
46347;BME280;32057;47.830;19.046;2023-04-06T06:56:19;100232.47;;;2.17;68.81
46347;BME280;32057;47.830;19.046;2023-04-06T06:58:45;100228.59;;;2.25;67.15
46347;BME280;32057;47.830;19.046;2023-04-06T07:01:10;100224.38;;;2.26;65.77
46347;BME280;32057;47.830;19.046;2023-04-06T07:03:36;100233.34;;;2.34;67.24
46347;BME280;32057;47.830;19.046;2023-04-06T07:06:02;100222.97;;;2.49;69.18
46347;BME280;32057;47.830;19.046;2023-04-06T07:08:27;100229.47;;;2.58;68.71
46347;BME280;32057;47.830;19.046;2023-04-06T07:10:53;100234.63;;;2.76;64.27
46347;BME280;32057;47.830;19.046;2023-04-06T07:13:21;100217.47;;;2.93;64.26
46347;BME280;32057;47.830;19.046;2023-04-06T07:15:47;100223.38;;;3.09;61.79
46347;BME280;32057;47.830;19.046;2023-04-06T07:18:13;100216.97;;;3.18;61.19
46347;BME280;32057;47.830;19.046;2023-04-06T07:20:38;100216.41;;;3.24;60.70
46347;BME280;32057;47.830;19.046;2023-04-06T07:23:04;100216.31;;;3.23;59.95
46347;BME280;32057;47.830;19.046;2023-04-06T07:25:29;100209.19;;;3.35;59.54
46347;BME280;32057;47.830;19.046;2023-04-06T07:27:55;100214.56;;;3.39;58.70
46347;BME280;32057;47.830;19.046;2023-04-06T07:30:21;100209.69;;;3.46;57.72
46347;BME280;32057;47.830;19.046;2023-04-06T07:32:47;100216.16;;;3.37;57.92
46347;BME280;32057;47.830;19.046;2023-04-06T07:35:13;100207.47;;;3.35;58.91
46347;BME280;32057;47.830;19.046;2023-04-06T07:37:38;100206.31;;;3.47;58.39
46347;BME280;32057;47.830;19.046;2023-04-06T07:40:04;100208.78;;;3.63;58.45
46347;BME280;32057;47.830;19.046;2023-04-06T07:42:30;100201.56;;;3.74;56.61
46347;BME280;32057;47.830;19.046;2023-04-06T07:44:57;100196.22;;;3.89;56.27
46347;BME280;32057;47.830;19.046;2023-04-06T07:47:23;100199.34;;;4.01;55.10
46347;BME280;32057;47.830;19.046;2023-04-06T07:49:48;100201.50;;;4.11;53.96
46347;BME280;32057;47.830;19.046;2023-04-06T07:52:14;100197.50;;;4.18;52.60
46347;BME280;32057;47.830;19.046;2023-04-06T07:54:40;100200.53;;;4.29;51.88
46347;BME280;32057;47.830;19.046;2023-04-06T07:57:06;100203.03;;;4.47;52.91
46347;BME280;32057;47.830;19.046;2023-04-06T07:59:32;100190.72;;;4.61;51.25
46347;BME280;32057;47.830;19.046;2023-04-06T08:01:57;100194.75;;;4.75;50.64
46347;BME280;32057;47.830;19.046;2023-04-06T08:04:22;100197.91;;;4.68;50.16
46347;BME280;32057;47.830;19.046;2023-04-06T08:06:48;100201.91;;;4.61;50.79
46347;BME280;32057;47.830;19.046;2023-04-06T08:09:13;100200.81;;;4.75;50.66
46347;BME280;32057;47.830;19.046;2023-04-06T08:11:39;100199.47;;;5.06;47.88
46347;BME280;32057;47.830;19.046;2023-04-06T08:14:04;100193.38;;;5.25;47.09
46347;BME280;32057;47.830;19.046;2023-04-06T08:16:30;100188.09;;;5.01;45.95
46347;BME280;32057;47.830;19.046;2023-04-06T08:18:55;100192.31;;;5.43;47.68
46347;BME280;32057;47.830;19.046;2023-04-06T08:21:21;100183.06;;;5.25;47.25
46347;BME280;32057;47.830;19.046;2023-04-06T08:23:47;100184.66;;;5.23;48.34
46347;BME280;32057;47.830;19.046;2023-04-06T08:26:13;100177.28;;;5.10;48.95
46347;BME280;32057;47.830;19.046;2023-04-06T08:28:38;100179.53;;;5.46;49.77
46347;BME280;32057;47.830;19.046;2023-04-06T08:31:05;100172.50;;;5.42;48.58
46347;BME280;32057;47.830;19.046;2023-04-06T08:33:30;100181.25;;;5.02;47.20
46347;BME280;32057;47.830;19.046;2023-04-06T08:35:56;100184.19;;;5.11;44.59
46347;BME280;32057;47.830;19.046;2023-04-06T08:38:22;100181.34;;;5.26;46.95
46347;BME280;32057;47.830;19.046;2023-04-06T08:40:47;100176.72;;;5.39;43.87
46347;BME280;32057;47.830;19.046;2023-04-06T08:43:17;100173.31;;;5.41;44.14
46347;BME280;32057;47.830;19.046;2023-04-06T08:45:43;100175.78;;;5.60;44.45
46347;BME280;32057;47.830;19.046;2023-04-06T08:48:11;100178.59;;;5.44;45.31
46347;BME280;32057;47.830;19.046;2023-04-06T08:50:38;100168.81;;;5.57;44.32
46347;BME280;32057;47.830;19.046;2023-04-06T08:53:05;100171.94;;;5.73;44.62
46347;BME280;32057;47.830;19.046;2023-04-06T08:55:31;100174.47;;;5.49;43.71
46347;BME280;32057;47.830;19.046;2023-04-06T08:57:58;100167.81;;;5.31;44.05
46347;BME280;32057;47.830;19.046;2023-04-06T09:00:25;100173.69;;;5.50;46.14
46347;BME280;32057;47.830;19.046;2023-04-06T09:02:52;100171.84;;;5.70;45.07
46347;BME280;32057;47.830;19.046;2023-04-06T09:05:19;100168.28;;;5.90;44.76
46347;BME280;32057;47.830;19.046;2023-04-06T09:07:45;100168.03;;;6.07;45.23
46347;BME280;32057;47.830;19.046;2023-04-06T09:10:10;100160.34;;;6.08;42.07
46347;BME280;32057;47.830;19.046;2023-04-06T09:12:35;100162.13;;;6.09;43.27
46347;BME280;32057;47.830;19.046;2023-04-06T09:15:02;100170.47;;;6.26;46.24
46347;BME280;32057;47.830;19.046;2023-04-06T09:17:29;100161.50;;;6.16;43.36
46347;BME280;32057;47.830;19.046;2023-04-06T09:19:56;100164.47;;;6.27;42.81
46347;BME280;32057;47.830;19.046;2023-04-06T09:22:21;100151.72;;;6.32;43.41
46347;BME280;32057;47.830;19.046;2023-04-06T09:24:49;100159.22;;;6.50;44.18
46347;BME280;32057;47.830;19.046;2023-04-06T09:27:15;100149.66;;;6.47;42.31
46347;BME280;32057;47.830;19.046;2023-04-06T09:29:41;100153.19;;;6.51;41.80
46347;BME280;32057;47.830;19.046;2023-04-06T09:32:08;100144.78;;;6.56;42.60
46347;BME280;32057;47.830;19.046;2023-04-06T09:34:38;100128.19;;;6.50;42.22
46347;BME280;32057;47.830;19.046;2023-04-06T09:39:39;100143.22;;;6.36;42.31
46347;BME280;32057;47.830;19.046;2023-04-06T09:42:04;100136.00;;;6.51;41.59
46347;BME280;32057;47.830;19.046;2023-04-06T09:44:30;100134.50;;;6.58;42.30
46347;BME280;32057;47.830;19.046;2023-04-06T09:46:55;100137.66;;;6.49;42.41
46347;BME280;32057;47.830;19.046;2023-04-06T09:49:22;100133.97;;;6.68;42.06
46347;BME280;32057;47.830;19.046;2023-04-06T09:51:57;100139.38;;;6.76;41.90
46347;BME280;32057;47.830;19.046;2023-04-06T09:54:29;100132.44;;;6.75;41.15
46347;BME280;32057;47.830;19.046;2023-04-06T10:02:15;100130.16;;;6.84;39.27
46347;BME280;32057;47.830;19.046;2023-04-06T10:08:15;100129.50;;;7.17;42.11
46347;BME280;32057;47.830;19.046;2023-04-06T10:10:42;100122.63;;;7.48;40.47
46347;BME280;32057;47.830;19.046;2023-04-06T10:13:11;100124.31;;;7.46;39.24
46347;BME280;32057;47.830;19.046;2023-04-06T10:15:38;100115.69;;;7.47;39.72
46347;BME280;32057;47.830;19.046;2023-04-06T10:18:05;100117.28;;;7.42;40.30
46347;BME280;32057;47.830;19.046;2023-04-06T10:21:06;100116.09;;;7.61;40.19
46347;BME280;32057;47.830;19.046;2023-04-06T10:23:41;100107.72;;;7.69;38.48
46347;BME280;32057;47.830;19.046;2023-04-06T10:26:13;100111.97;;;7.67;39.37
46347;BME280;32057;47.830;19.046;2023-04-06T10:28:42;100096.13;;;7.56;38.12
46347;BME280;32057;47.830;19.046;2023-04-06T10:31:08;100097.19;;;7.63;39.24
46347;BME280;32057;47.830;19.046;2023-04-06T10:33:34;100092.63;;;7.86;39.44
46347;BME280;32057;47.830;19.046;2023-04-06T10:36:21;100087.78;;;7.98;38.72
46347;BME280;32057;47.830;19.046;2023-04-06T10:38:46;100082.94;;;8.11;38.90
46347;BME280;32057;47.830;19.046;2023-04-06T10:41:12;100088.34;;;8.20;39.57
46347;BME280;32057;47.830;19.046;2023-04-06T10:43:40;100091.78;;;8.19;39.37
46347;BME280;32057;47.830;19.046;2023-04-06T10:46:07;100090.06;;;8.20;38.13
46347;BME280;32057;47.830;19.046;2023-04-06T10:48:37;100089.22;;;7.87;37.09
46347;BME280;32057;47.830;19.046;2023-04-06T10:51:09;100075.13;;;8.09;37.54
46347;BME280;32057;47.830;19.046;2023-04-06T10:53:35;100077.97;;;8.20;36.00
46347;BME280;32057;47.830;19.046;2023-04-06T10:56:02;100074.94;;;8.35;37.13
46347;BME280;32057;47.830;19.046;2023-04-06T10:58:28;100069.91;;;8.41;35.73
46347;BME280;32057;47.830;19.046;2023-04-06T11:00:54;100073.25;;;8.38;36.68
46347;BME280;32057;47.830;19.046;2023-04-06T11:03:20;100060.63;;;8.49;37.63
46347;BME280;32057;47.830;19.046;2023-04-06T11:05:47;100060.19;;;8.34;36.85
46347;BME280;32057;47.830;19.046;2023-04-06T11:08:30;100065.47;;;8.38;36.85
46347;BME280;32057;47.830;19.046;2023-04-06T11:11:10;100064.84;;;8.46;35.79
46347;BME280;32057;47.830;19.046;2023-04-06T11:13:44;100054.47;;;8.12;35.25
46347;BME280;32057;47.830;19.046;2023-04-06T11:16:31;100062.88;;;8.04;37.16
46347;BME280;32057;47.830;19.046;2023-04-06T11:19:01;100057.09;;;8.14;35.29
46347;BME280;32057;47.830;19.046;2023-04-06T11:21:36;100049.47;;;8.20;35.02
46347;BME280;32057;47.830;19.046;2023-04-06T11:24:12;100047.00;;;8.25;34.35
46347;BME280;32057;47.830;19.046;2023-04-06T11:26:43;100051.25;;;8.21;34.91
46347;BME280;32057;47.830;19.046;2023-04-06T11:29:10;100041.06;;;8.29;34.10
46347;BME280;32057;47.830;19.046;2023-04-06T11:31:45;100041.59;;;8.50;36.00
46347;BME280;32057;47.830;19.046;2023-04-06T11:34:22;100041.16;;;8.68;35.28
46347;BME280;32057;47.830;19.046;2023-04-06T11:36:59;100044.72;;;8.72;33.28
46347;BME280;32057;47.830;19.046;2023-04-06T11:39:26;100040.91;;;8.57;33.04
46347;BME280;32057;47.830;19.046;2023-04-06T11:41:54;100038.69;;;8.38;33.75
46347;BME280;32057;47.830;19.046;2023-04-06T11:44:31;100044.19;;;8.50;35.09
46347;BME280;32057;47.830;19.046;2023-04-06T11:46:57;100034.72;;;8.52;36.66
46347;BME280;32057;47.830;19.046;2023-04-06T11:49:27;100041.53;;;8.47;35.24
46347;BME280;32057;47.830;19.046;2023-04-06T11:51:53;100032.59;;;8.36;35.87
46347;BME280;32057;47.830;19.046;2023-04-06T11:54:30;100027.72;;;8.48;36.27
46347;BME280;32057;47.830;19.046;2023-04-06T11:56:55;100028.44;;;8.08;34.78
46347;BME280;32057;47.830;19.046;2023-04-06T11:59:21;100024.72;;;7.98;34.75
46347;BME280;32057;47.830;19.046;2023-04-06T12:01:48;100031.47;;;7.91;34.63
46347;BME280;32057;47.830;19.046;2023-04-06T12:04:14;100024.88;;;8.04;34.77
46347;BME280;32057;47.830;19.046;2023-04-06T12:06:39;100017.97;;;8.03;33.96
46347;BME280;32057;47.830;19.046;2023-04-06T12:09:05;100021.31;;;8.34;34.55
46347;BME280;32057;47.830;19.046;2023-04-06T12:11:30;100022.78;;;8.24;34.43
46347;BME280;32057;47.830;19.046;2023-04-06T12:13:56;100020.47;;;8.35;34.91
46347;BME280;32057;47.830;19.046;2023-04-06T12:16:21;100021.25;;;8.31;35.71
46347;BME280;32057;47.830;19.046;2023-04-06T12:18:47;100019.47;;;8.30;34.79
46347;BME280;32057;47.830;19.046;2023-04-06T12:21:12;100013.63;;;8.37;35.43
46347;BME280;32057;47.830;19.046;2023-04-06T12:23:37;100016.63;;;8.19;35.90
46347;BME280;32057;47.830;19.046;2023-04-06T12:26:03;100020.00;;;8.16;35.97
46347;BME280;32057;47.830;19.046;2023-04-06T12:28:28;100011.44;;;8.19;36.34
46347;BME280;32057;47.830;19.046;2023-04-06T12:30:54;100016.59;;;8.17;35.70
46347;BME280;32057;47.830;19.046;2023-04-06T12:33:20;100014.81;;;8.16;33.96
46347;BME280;32057;47.830;19.046;2023-04-06T12:35:46;100007.38;;;8.29;35.75
46347;BME280;32057;47.830;19.046;2023-04-06T12:38:12;100012.03;;;8.42;36.83
46347;BME280;32057;47.830;19.046;2023-04-06T12:40:38;100012.31;;;8.53;37.88
46347;BME280;32057;47.830;19.046;2023-04-06T12:43:04;100017.78;;;8.32;36.05
46347;BME280;32057;47.830;19.046;2023-04-06T12:45:31;100009.97;;;8.29;39.18
46347;BME280;32057;47.830;19.046;2023-04-06T12:47:56;100008.09;;;8.23;37.74
46347;BME280;32057;47.830;19.046;2023-04-06T12:50:22;100004.09;;;8.03;36.30
46347;BME280;32057;47.830;19.046;2023-04-06T12:52:47;100013.44;;;7.96;37.83